Time;durP1;ratioP1;P1;durP2;ratioP2;P2;SDS_P1;SDS_P2;PMS_P1;PMS_P2;Temp;Humidity;BMP_temperature;BMP_pressure;BME280_temperature;BME280_humidity;BME280_pressure;Samples;Min_cycle;Max_cycle;Signal;HPM_P1;HPM_P2
2022/01/06 00:00:30;;;;;;;21.17;4.03;;;5.10;86.20;;;;;;5156364;27;20049;-77
2022/01/06 00:02:56;;;;;;;20.95;4.10;;;5.10;85.40;;;;;;5139265;27;20043;-77
2022/01/06 00:05:22;;;;;;;26.45;4.88;;;5.10;85.40;;;;;;5156285;27;20074;-77
2022/01/06 00:07:48;;;;;;;25.40;4.28;;;5.10;85.20;;;;;;5138844;27;20099;-77
2022/01/06 00:10:15;;;;;;;19.20;4.10;;;5.10;84.40;;;;;;5138818;27;20042;-78
2022/01/06 00:13:29;;;;;;;28.33;5.13;;;5.10;84.50;;;;;;5156366;27;20042;-77
2022/01/06 00:15:56;;;;;;;21.52;4.40;;;5.10;84.70;;;;;;5142536;27;20035;-78
2022/01/06 00:23:42;;;;;;;21.63;4.78;;;4.80;85.70;;;;;;5155833;27;20077;-77
2022/01/06 00:26:08;;;;;;;25.15;5.20;;;4.80;86.00;;;;;;5156018;27;20042;-79
2022/01/06 00:28:36;;;;;;;14.27;3.92;;;4.70;86.30;;;;;;5155677;27;20042;-78
2022/01/06 00:31:02;;;;;;;14.43;3.17;;;4.70;86.10;;;;;;5155851;27;20045;-78
2022/01/06 00:33:30;;;;;;;14.73;3.15;;;4.70;84.70;;;;;;5156161;27;20510;-79
2022/01/06 00:35:56;;;;;;;17.42;2.67;;;4.70;83.60;;;;;;5138188;27;20122;-78
2022/01/06 00:38:24;;;;;;;14.43;4.25;;;4.70;83.10;;;;;;5155831;27;20435;-78
2022/01/06 00:40:51;;;;;;;14.57;2.45;;;4.70;82.80;;;;;;5138507;27;20051;-79
2022/01/06 00:43:16;;;;;;;14.10;3.15;;;4.80;82.70;;;;;;5155707;27;20494;-78
2022/01/06 00:45:42;;;;;;;13.75;3.20;;;4.70;82.90;;;;;;5138621;27;20088;-79
2022/01/06 00:48:10;;;;;;;14.30;2.72;;;4.70;82.60;;;;;;5138126;27;20406;-79
2022/01/06 00:50:39;;;;;;;15.30;3.05;;;4.70;82.50;;;;;;5138515;27;20050;-79
2022/01/06 00:53:05;;;;;;;10.07;2.55;;;4.70;82.30;;;;;;5155393;27;20147;-78
2022/01/06 00:55:35;;;;;;;15.80;3.33;;;4.70;82.30;;;;;;5138385;27;20066;-78
2022/01/06 00:58:02;;;;;;;13.85;3.17;;;4.60;82.40;;;;;;5155117;27;20038;-78
2022/01/06 01:00:37;;;;;;;13.80;3.42;;;4.70;82.10;;;;;;5155487;27;20038;-78
2022/01/06 01:03:04;;;;;;;15.50;2.80;;;4.60;82.20;;;;;;5137265;27;20090;-78
2022/01/06 01:05:31;;;;;;;11.35;2.78;;;4.70;82.00;;;;;;5155297;27;20034;-77
2022/01/06 01:07:56;;;;;;;12.50;2.97;;;4.70;82.00;;;;;;5155050;27;20538;-78
2022/01/06 01:10:22;;;;;;;13.80;3.55;;;4.70;82.00;;;;;;5155290;27;20125;-78
2022/01/06 01:12:49;;;;;;;14.35;3.30;;;4.70;81.70;;;;;;5138100;27;20031;-79
2022/01/06 01:15:22;;;;;;;17.65;3.10;;;4.60;81.90;;;;;;5155276;27;20042;-78
2022/01/06 01:17:50;;;;;;;23.20;3.95;;;4.60;81.90;;;;;;5155290;27;20099;-78
2022/01/06 01:20:17;;;;;;;19.65;3.22;;;4.60;82.00;;;;;;5120807;27;20042;-79
2022/01/06 01:22:43;;;;;;;11.07;2.47;;;4.70;82.20;;;;;;5154529;27;20047;-77
2022/01/06 01:25:09;;;;;;;18.00;3.47;;;4.70;81.90;;;;;;5154587;27;20047;-78
2022/01/06 01:27:39;;;;;;;14.68;2.90;;;4.70;81.80;;;;;;5137669;27;20508;-78
2022/01/06 01:30:11;;;;;;;12.70;3.35;;;4.70;81.80;;;;;;5154240;27;20034;-78
2022/01/06 01:32:38;;;;;;;16.50;5.25;;;4.70;82.00;;;;;;5154773;27;20425;-78
2022/01/06 01:35:07;;;;;;;16.98;3.13;;;4.70;82.00;;;;;;5154786;27;20048;-77
2022/01/06 01:37:34;;;;;;;13.05;3.10;;;4.80;81.90;;;;;;5137449;27;20367;-77
2022/01/06 01:40:00;;;;;;;16.65;2.97;;;4.80;81.90;;;;;;5154223;27;20043;-78
2022/01/06 01:42:26;;;;;;;23.23;3.65;;;4.80;82.10;;;;;;5154507;27;20034;-78
2022/01/06 01:44:53;;;;;;;15.90;3.20;;;4.80;82.10;;;;;;5155005;27;20050;-78
2022/01/06 01:47:30;;;;;;;15.77;2.70;;;4.80;82.20;;;;;;5154464;27;20363;-78
2022/01/06 01:50:12;;;;;;;16.75;4.85;;;4.80;82.40;;;;;;5137522;27;20130;-77
2022/01/06 01:52:49;;;;;;;23.05;6.10;;;4.80;82.40;;;;;;5154779;27;20057;-78
2022/01/06 01:55:21;;;;;;;15.88;3.65;;;4.80;82.60;;;;;;5138520;27;20121;-77
2022/01/06 01:57:48;;;;;;;14.77;3.30;;;4.80;82.70;;;;;;5137097;27;20031;-78
2022/01/06 02:00:15;;;;;;;17.90;2.72;;;4.80;82.50;;;;;;5137161;27;20039;-77
2022/01/06 02:02:42;;;;;;;13.98;2.75;;;4.80;82.40;;;;;;5154104;27;20035;-78
2022/01/06 02:05:08;;;;;;;14.25;2.70;;;4.70;82.30;;;;;;5136902;27;20531;-77
2022/01/06 02:07:36;;;;;;;16.80;4.03;;;4.70;82.00;;;;;;5137121;27;20087;-77
2022/01/06 02:10:04;;;;;;;15.50;3.00;;;4.70;82.00;;;;;;5154056;27;20134;-78
2022/01/06 02:12:34;;;;;;;10.88;2.65;;;4.60;82.00;;;;;;5154434;27;20035;-77
2022/01/06 02:15:00;;;;;;;16.30;3.15;;;4.60;81.90;;;;;;5159443;27;20650;-77
2022/01/06 02:17:26;;;;;;;20.00;3.08;;;4.60;81.60;;;;;;5160786;27;20086;-78
2022/01/06 02:19:54;;;;;;;14.70;3.17;;;4.60;81.80;;;;;;5160917;27;20121;-78
2022/01/06 02:22:20;;;;;;;12.98;2.85;;;4.60;81.80;;;;;;5143665;27;20053;-78
2022/01/06 02:24:46;;;;;;;16.63;2.47;;;4.50;81.80;;;;;;5143347;27;20406;-77
2022/01/06 02:27:12;;;;;;;12.90;2.97;;;4.50;81.70;;;;;;5143556;27;20035;-79
2022/01/06 02:29:38;;;;;;;14.98;2.72;;;4.50;81.60;;;;;;5160941;27;20041;-78
2022/01/06 02:32:09;;;;;;;15.23;2.80;;;4.60;81.40;;;;;;5160705;27;20441;-78
2022/01/06 02:34:34;;;;;;;13.77;2.75;;;4.60;81.40;;;;;;5160979;27;20038;-77
2022/01/06 02:37:01;;;;;;;11.38;2.70;;;4.50;81.30;;;;;;5143631;27;20091;-78
2022/01/06 02:39:27;;;;;;;19.15;3.20;;;4.40;81.50;;;;;;5161153;27;20056;-78
2022/01/06 02:41:53;;;;;;;12.52;3.50;;;4.30;81.70;;;;;;5161201;27;20463;-78
2022/01/06 02:44:21;;;;;;;15.35;3.90;;;4.30;81.90;;;;;;5160549;27;20490;-78
2022/01/06 02:46:47;;;;;;;17.45;3.35;;;4.20;82.00;;;;;;5143624;27;20043;-78
2022/01/06 02:49:12;;;;;;;23.55;3.80;;;4.20;82.30;;;;;;5160386;27;20061;-79
2022/01/06 02:51:40;;;;;;;15.07;3.95;;;4.20;82.40;;;;;;5143209;27;20083;-77
2022/01/06 02:54:06;;;;;;;13.93;3.28;;;4.10;82.60;;;;;;5160875;27;20035;-77
2022/01/06 02:56:32;;;;;;;14.35;4.22;;;4.10;82.80;;;;;;5160619;27;20031;-79
2022/01/06 02:58:58;;;;;;;15.35;2.88;;;4.00;83.00;;;;;;5160775;27;20035;-77
2022/01/06 03:01:24;;;;;;;11.40;2.50;;;4.00;83.20;;;;;;5160969;27;20363;-77
2022/01/06 03:03:50;;;;;;;18.63;3.90;;;4.00;83.50;;;;;;5143811;27;20095;-77
2022/01/06 03:06:15;;;;;;;27.13;4.95;;;3.90;83.40;;;;;;5143502;27;20043;-78
2022/01/06 03:08:41;;;;;;;14.63;3.78;;;3.90;83.50;;;;;;5143787;27;20053;-78
2022/01/06 03:11:07;;;;;;;14.52;3.00;;;3.90;83.50;;;;;;5143525;27;20498;-78
2022/01/06 03:13:33;;;;;;;14.38;3.45;;;3.80;83.50;;;;;;5160807;27;20039;-79
2022/01/06 03:16:01;;;;;;;22.35;3.40;;;3.80;83.50;;;;;;5143183;27;20043;-78
2022/01/06 03:18:27;;;;;;;14.02;3.28;;;3.70;83.50;;;;;;5143643;27;20039;-78
2022/01/06 03:20:53;;;;;;;16.20;2.58;;;3.70;83.60;;;;;;5143586;27;20038;-78
2022/01/06 03:23:19;;;;;;;14.85;3.28;;;3.70;83.70;;;;;;5160057;27;20535;-77
2022/01/06 03:25:45;;;;;;;22.95;3.90;;;3.70;83.80;;;;;;5140422;27;20518;-78
2022/01/06 03:28:11;;;;;;;18.10;3.55;;;3.70;84.00;;;;;;5139523;27;20038;-78
2022/01/06 03:30:37;;;;;;;17.27;4.57;;;3.70;84.00;;;;;;5157094;27;20046;-77
2022/01/06 03:33:03;;;;;;;14.45;3.40;;;3.60;84.10;;;;;;5156928;27;20030;-79
2022/01/06 03:35:29;;;;;;;21.30;3.22;;;3.60;84.10;;;;;;5139472;27;20038;-77
2022/01/06 03:37:55;;;;;;;12.68;2.60;;;3.60;84.30;;;;;;5139520;27;20039;-78
2022/01/06 03:40:21;;;;;;;17.10;3.47;;;3.60;84.20;;;;;;5156861;27;20046;-78
2022/01/06 03:42:47;;;;;;;16.17;3.15;;;3.60;84.30;;;;;;5156862;27;20086;-76
2022/01/06 03:45:15;;;;;;;16.23;2.70;;;3.60;84.40;;;;;;5139515;27;20039;-76
2022/01/06 03:47:41;;;;;;;14.30;2.90;;;3.50;84.30;;;;;;5156555;27;20049;-77
2022/01/06 03:50:08;;;;;;;19.00;3.45;;;3.50;84.40;;;;;;5156472;27;20090;-79
2022/01/06 03:52:35;;;;;;;12.60;3.13;;;3.50;84.40;;;;;;5139358;27;20471;-78
2022/01/06 03:55:02;;;;;;;16.85;3.20;;;3.50;84.20;;;;;;5139478;27;20074;-77
2022/01/06 03:57:28;;;;;;;15.23;2.65;;;3.50;84.30;;;;;;5156276;27;20070;-78
2022/01/06 03:59:53;;;;;;;11.35;2.65;;;3.40;84.20;;;;;;5139179;27;20085;-77
2022/01/06 04:02:20;;;;;;;20.98;3.60;;;3.40;84.40;;;;;;5139288;27;20039;-77
2022/01/06 04:04:46;;;;;;;26.23;2.92;;;3.40;84.60;;;;;;5156093;27;20054;-77
2022/01/06 04:07:12;;;;;;;24.58;4.55;;;3.30;84.50;;;;;;5138550;27;20039;-77
2022/01/06 04:09:37;;;;;;;16.88;5.03;;;3.30;84.80;;;;;;5138738;27;20031;-77
2022/01/06 04:12:03;;;;;;;14.93;2.65;;;3.30;84.90;;;;;;5156230;27;20542;-77
2022/01/06 04:14:29;;;;;;;14.55;3.70;;;3.20;84.80;;;;;;5156089;27;20095;-77
2022/01/06 04:16:59;;;;;;;17.75;3.50;;;3.20;85.00;;;;;;5155948;27;20031;-77
2022/01/06 04:19:25;;;;;;;18.08;3.97;;;3.20;85.00;;;;;;5155874;27;20478;-77
2022/01/06 04:21:52;;;;;;;14.48;3.58;;;3.20;84.70;;;;;;5155540;27;20046;-77
2022/01/06 04:24:18;;;;;;;13.80;2.95;;;3.20;84.50;;;;;;5155575;27;20126;-76
2022/01/06 04:26:44;;;;;;;14.35;4.00;;;3.20;84.70;;;;;;5155491;27;20070;-77
2022/01/06 04:29:09;;;;;;;19.55;5.18;;;3.10;84.40;;;;;;5138321;27;20077;-76
2022/01/06 04:31:35;;;;;;;15.52;2.80;;;3.10;84.40;;;;;;5138163;27;20179;-76
2022/01/06 04:34:01;;;;;;;16.00;2.88;;;3.10;84.70;;;;;;5103985;27;20027;-77
2022/01/06 04:36:26;;;;;;;11.55;2.45;;;3.00;84.30;;;;;;5155085;27;20091;-77
2022/01/06 04:38:52;;;;;;;12.88;3.03;;;2.90;83.90;;;;;;5138097;27;20038;-77
2022/01/06 04:41:18;;;;;;;17.70;2.97;;;2.80;84.00;;;;;;5138033;27;20041;-76
2022/01/06 04:43:43;;;;;;;12.10;2.63;;;2.80;84.20;;;;;;5155864;27;20125;-77
2022/01/06 04:46:09;;;;;;;13.07;2.60;;;2.70;84.50;;;;;;5138193;27;20049;-77
2022/01/06 04:48:37;;;;;;;16.35;2.95;;;2.70;84.80;;;;;;5155406;27;20394;-76
2022/01/06 04:51:03;;;;;;;14.43;2.47;;;2.60;84.90;;;;;;5155286;27;20039;-77
2022/01/06 04:53:29;;;;;;;9.48;2.67;;;2.60;85.00;;;;;;5138211;27;20064;-77
2022/01/06 04:55:56;;;;;;;14.02;3.15;;;2.60;85.10;;;;;;5138047;27;20084;-78
2022/01/06 04:58:22;;;;;;;15.82;3.25;;;2.60;85.00;;;;;;5155103;27;20084;-77
2022/01/06 05:00:48;;;;;;;18.60;2.92;;;2.60;85.00;;;;;;5121084;27;20038;-78
2022/01/06 05:03:13;;;;;;;10.27;2.10;;;2.60;85.10;;;;;;5137810;27;20045;-77
2022/01/06 05:05:39;;;;;;;16.23;3.58;;;2.60;85.00;;;;;;5155406;27;20049;-77
2022/01/06 05:08:05;;;;;;;14.60;4.30;;;2.50;85.10;;;;;;5154914;27;20500;-76
2022/01/06 05:10:30;;;;;;;23.98;3.22;;;2.50;85.20;;;;;;5154952;27;20038;-78
2022/01/06 05:12:56;;;;;;;17.85;3.10;;;2.50;85.30;;;;;;5137870;27;20383;-77
2022/01/06 05:15:22;;;;;;;12.68;3.50;;;2.40;85.40;;;;;;5137900;27;20034;-77
2022/01/06 05:17:47;;;;;;;16.10;3.15;;;2.30;85.40;;;;;;5154964;27;20042;-77
2022/01/06 05:20:13;;;;;;;17.15;2.88;;;2.30;85.60;;;;;;5137826;27;20507;-77
2022/01/06 05:22:44;;;;;;;15.43;2.70;;;2.30;85.60;;;;;;5154712;27;20078;-77
2022/01/06 05:25:11;;;;;;;14.75;3.83;;;2.20;85.70;;;;;;5154971;27;20039;-77
2022/01/06 05:27:37;;;;;;;18.70;4.28;;;2.10;85.80;;;;;;5137673;27;20038;-76
2022/01/06 05:30:05;;;;;;;11.27;3.45;;;2.10;86.10;;;;;;5137377;27;20128;-77
2022/01/06 05:32:31;;;;;;;13.85;4.22;;;2.10;86.30;;;;;;5154921;27;20111;-77
2022/01/06 05:34:57;;;;;;;16.45;3.35;;;2.00;86.30;;;;;;5154634;27;20478;-77
2022/01/06 05:37:22;;;;;;;14.25;2.90;;;2.00;86.30;;;;;;5137133;27;20034;-77
2022/01/06 05:39:48;;;;;;;13.00;3.80;;;1.90;86.60;;;;;;5120120;27;20462;-77
2022/01/06 05:42:14;;;;;;;13.88;2.40;;;1.80;86.80;;;;;;5137557;27;20074;-77
2022/01/06 05:44:41;;;;;;;20.25;4.57;;;1.80;86.90;;;;;;5136887;27;20037;-77
2022/01/06 05:47:07;;;;;;;19.63;4.75;;;1.80;87.00;;;;;;5154239;27;20057;-77
2022/01/06 05:49:33;;;;;;;14.15;3.80;;;1.70;86.90;;;;;;5153535;27;20405;-77
2022/01/06 05:52:00;;;;;;;15.00;3.47;;;1.70;86.90;;;;;;5154776;27;20078;-77
2022/01/06 05:54:26;;;;;;;11.43;2.35;;;1.70;87.00;;;;;;5137060;27;20038;-76
2022/01/06 05:56:51;;;;;;;13.02;2.50;;;1.70;87.10;;;;;;5154221;27;20144;-77
2022/01/06 05:59:17;;;;;;;17.00;2.97;;;1.70;87.20;;;;;;5137425;27;20134;-77
2022/01/06 06:01:43;;;;;;;12.23;2.88;;;1.70;87.50;;;;;;5154265;27;20042;-76
2022/01/06 06:04:09;;;;;;;16.77;3.55;;;1.70;87.50;;;;;;5154084;27;20494;-78
2022/01/06 06:06:34;;;;;;;16.23;4.38;;;1.70;87.40;;;;;;5153944;27;20039;-77
2022/01/06 06:09:00;;;;;;;16.00;4.85;;;1.80;87.50;;;;;;5136602;27;20039;-75
2022/01/06 06:11:26;;;;;;;16.73;4.05;;;1.80;87.50;;;;;;5153418;27;20031;-77
2022/01/06 06:13:51;;;;;;;16.17;3.38;;;1.70;87.50;;;;;;5151708;27;20493;-76
2022/01/06 06:16:17;;;;;;;22.45;5.28;;;1.70;87.60;;;;;;5152443;27;20130;-77
2022/01/06 06:18:43;;;;;;;15.82;3.08;;;1.60;87.70;;;;;;5152209;27;20394;-76
2022/01/06 06:21:09;;;;;;;21.58;4.30;;;1.60;87.80;;;;;;5152737;27;20053;-76
2022/01/06 06:23:34;;;;;;;18.40;3.30;;;1.60;88.00;;;;;;5118522;27;20051;-77
2022/01/06 06:26:00;;;;;;;19.27;3.92;;;1.70;88.40;;;;;;5135514;27;20047;-76
2022/01/06 06:28:26;;;;;;;15.48;3.58;;;1.70;88.10;;;;;;5136120;27;20045;-78
2022/01/06 06:30:51;;;;;;;20.58;4.40;;;1.70;88.30;;;;;;5136041;27;20035;-76
2022/01/06 06:33:17;;;;;;;17.83;4.00;;;1.70;88.10;;;;;;5153314;27;20038;-77
2022/01/06 06:35:43;;;;;;;17.92;5.93;;;1.70;88.30;;;;;;5136478;27;20046;-77
2022/01/06 06:38:08;;;;;;;17.27;5.57;;;1.70;88.30;;;;;;5135930;27;20077;-77
2022/01/06 06:40:34;;;;;;;18.70;6.50;;;1.70;88.30;;;;;;5153588;27;20085;-78
2022/01/06 06:43:00;;;;;;;16.65;4.25;;;1.70;88.50;;;;;;5153367;27;20126;-77
2022/01/06 06:45:26;;;;;;;12.32;4.07;;;1.70;88.40;;;;;;5153153;27;20562;-78
2022/01/06 06:47:51;;;;;;;13.07;3.40;;;1.60;88.40;;;;;;5135930;27;20034;-77
2022/01/06 06:50:17;;;;;;;19.25;5.32;;;1.70;88.60;;;;;;5153056;27;20043;-78
2022/01/06 06:52:44;;;;;;;29.98;8.63;;;1.70;88.50;;;;;;5153067;27;20095;-77
2022/01/06 06:55:11;;;;;;;54.25;6.57;;;1.70;88.50;;;;;;5153145;27;20049;-75
2022/01/06 06:57:37;;;;;;;21.17;4.82;;;1.60;88.50;;;;;;5153025;27;20121;-76
2022/01/06 07:00:05;;;;;;;22.02;6.07;;;1.60;88.50;;;;;;5153218;27;20123;-76
2022/01/06 07:02:31;;;;;;;26.35;8.45;;;1.60;88.50;;;;;;5139406;27;20043;-77
2022/01/06 07:04:57;;;;;;;15.90;4.18;;;1.60;88.50;;;;;;5157156;27;20504;-76
2022/01/06 07:07:23;;;;;;;20.35;5.75;;;1.60;88.60;;;;;;5139972;27;20074;-77
2022/01/06 07:09:50;;;;;;;18.00;5.97;;;1.60;88.60;;;;;;5139616;27;20035;-77
2022/01/06 07:12:16;;;;;;;17.25;4.50;;;1.60;88.60;;;;;;5156721;27;20042;-77
2022/01/06 07:14:42;;;;;;;25.83;4.45;;;1.60;88.60;;;;;;5156650;27;20443;-77
2022/01/06 07:17:07;;;;;;;17.67;4.55;;;1.60;88.60;;;;;;5156948;27;20045;-77
2022/01/06 07:19:33;;;;;;;19.80;3.72;;;1.60;88.70;;;;;;5156596;27;20043;-78
2022/01/06 07:21:59;;;;;;;15.82;4.30;;;1.60;88.60;;;;;;5139520;27;20363;-77
2022/01/06 07:24:25;;;;;;;15.77;3.95;;;1.70;88.70;;;;;;5156209;27;20514;-77
2022/01/06 07:26:51;;;;;;;17.95;4.03;;;1.70;88.70;;;;;;5139239;27;20066;-78
2022/01/06 07:29:17;;;;;;;15.75;3.47;;;1.80;88.70;;;;;;5156479;27;20080;-77
2022/01/06 07:31:43;;;;;;;20.38;5.90;;;1.90;88.70;;;;;;5155976;27;20043;-77
2022/01/06 07:34:08;;;;;;;21.33;4.82;;;1.80;88.50;;;;;;5139310;27;20044;-76
2022/01/06 07:36:35;;;;;;;16.48;4.22;;;1.80;88.60;;;;;;5156288;27;20452;-77
2022/01/06 07:39:00;;;;;;;21.30;4.97;;;1.80;88.40;;;;;;5155951;27;20534;-77
2022/01/06 07:41:26;;;;;;;15.00;4.60;;;1.80;88.40;;;;;;5155841;27;20121;-77
2022/01/06 07:43:52;;;;;;;22.40;5.38;;;1.80;88.60;;;;;;5155725;27;20050;-78
2022/01/06 07:46:18;;;;;;;18.15;6.07;;;1.70;88.60;;;;;;5155841;27;20131;-78
2022/01/06 07:48:57;;;;;;;24.02;4.60;;;1.70;88.60;;;;;;5155844;27;20569;-77
2022/01/06 07:51:27;;;;;;;24.13;4.72;;;1.70;88.80;;;;;;5138709;27;20088;-78
2022/01/06 07:53:54;;;;;;;36.33;11.98;;;1.70;88.80;;;;;;5156132;27;20053;-77
2022/01/06 07:56:21;;;;;;;23.13;6.38;;;1.60;88.90;;;;;;5155939;27;20034;-77
2022/01/06 07:58:47;;;;;;;15.75;5.20;;;1.60;88.90;;;;;;5155889;27;20501;-78
2022/01/06 08:01:13;;;;;;;29.85;10.18;;;1.60;89.20;;;;;;5138406;27;20070;-78
2022/01/06 08:03:39;;;;;;;35.45;12.80;;;1.60;89.10;;;;;;5155633;27;20046;-76
2022/01/06 08:06:05;;;;;;;36.65;14.40;;;1.60;89.00;;;;;;5155312;27;20402;-77
2022/01/06 08:08:31;;;;;;;18.88;7.07;;;1.50;89.20;;;;;;5155972;27;20038;-77
2022/01/06 08:10:56;;;;;;;35.70;12.77;;;1.60;89.30;;;;;;5138340;27;20039;-78
2022/01/06 08:13:22;;;;;;;29.40;12.15;;;1.50;89.40;;;;;;5155422;27;20027;-77
2022/01/06 08:15:48;;;;;;;23.65;7.05;;;1.50;89.40;;;;;;5155540;27;20035;-77
2022/01/06 08:18:14;;;;;;;23.38;7.88;;;1.50;89.40;;;;;;5155449;27;20046;-76
2022/01/06 08:20:40;;;;;;;16.35;4.82;;;1.50;89.60;;;;;;5155422;27;20038;-77
2022/01/06 08:23:07;;;;;;;36.15;16.30;;;1.50;89.90;;;;;;5155441;27;20047;-77
2022/01/06 08:25:33;;;;;;;22.88;5.97;;;1.50;89.70;;;;;;5138003;27;20051;-78
2022/01/06 08:27:58;;;;;;;29.77;10.50;;;1.50;89.80;;;;;;5138137;27;20079;-76
2022/01/06 08:30:24;;;;;;;23.75;5.32;;;1.40;89.80;;;;;;5155406;27;20047;-79
2022/01/06 08:32:50;;;;;;;18.30;3.95;;;1.40;89.90;;;;;;5120551;27;20419;-78
2022/01/06 08:35:16;;;;;;;20.75;5.32;;;1.40;89.70;;;;;;5137848;27;20045;-78
2022/01/06 08:37:44;;;;;;;17.33;4.70;;;1.40;89.90;;;;;;5155206;27;20030;-77
2022/01/06 08:40:10;;;;;;;23.33;7.53;;;1.40;89.90;;;;;;5155110;27;20035;-79
2022/01/06 08:42:36;;;;;;;20.83;5.18;;;1.40;89.80;;;;;;5155237;27;20433;-78
2022/01/06 08:45:03;;;;;;;30.60;7.95;;;1.40;89.80;;;;;;5154930;27;20046;-77
2022/01/06 08:47:29;;;;;;;32.58;12.75;;;1.40;89.80;;;;;;5154858;27;20506;-76
2022/01/06 08:49:56;;;;;;;20.67;4.80;;;1.40;89.90;;;;;;5120385;27;20039;-78
2022/01/06 08:52:22;;;;;;;15.23;4.60;;;1.40;90.00;;;;;;5154794;27;20038;-76
2022/01/06 08:54:48;;;;;;;22.95;4.43;;;1.40;90.20;;;;;;5154970;27;20042;-76
2022/01/06 08:57:15;;;;;;;27.55;7.07;;;1.50;90.00;;;;;;5154649;27;20526;-76
2022/01/06 08:59:40;;;;;;;29.05;9.15;;;1.50;90.00;;;;;;5120156;27;20528;-77
2022/01/06 09:02:06;;;;;;;27.40;8.10;;;1.60;90.10;;;;;;5154748;27;20038;-76
2022/01/06 09:04:32;;;;;;;46.00;19.83;;;1.60;90.20;;;;;;5154549;27;20034;-76
2022/01/06 09:06:58;;;;;;;21.60;7.70;;;1.60;90.10;;;;;;5137080;27;20046;-76
2022/01/06 09:09:24;;;;;;;20.50;6.82;;;1.60;90.20;;;;;;5154146;27;20038;-76
2022/01/06 09:11:51;;;;;;;17.02;5.28;;;1.60;90.20;;;;;;5154323;27;20062;-77
2022/01/06 09:14:17;;;;;;;17.98;7.00;;;1.60;90.40;;;;;;5154248;27;20049;-76
2022/01/06 09:16:44;;;;;;;17.92;5.00;;;1.70;90.20;;;;;;5137257;27;20076;-76
2022/01/06 09:19:09;;;;;;;24.45;6.07;;;1.70;90.50;;;;;;5137449;27;20519;-78
2022/01/06 09:21:35;;;;;;;32.95;8.15;;;1.80;90.30;;;;;;5136351;27;20047;-77
2022/01/06 09:24:06;;;;;;;16.90;6.00;;;1.80;90.60;;;;;;5152585;27;20046;-77
2022/01/06 09:26:35;;;;;;;23.33;8.23;;;1.90;90.70;;;;;;5153848;27;20042;-78
2022/01/06 09:29:03;;;;;;;16.63;5.40;;;2.00;90.60;;;;;;5154017;27;20118;-78
2022/01/06 09:31:29;;;;;;;30.25;8.63;;;2.00;90.50;;;;;;5136584;27;20043;-77
2022/01/06 09:33:54;;;;;;;26.33;8.68;;;2.10;90.50;;;;;;5153865;27;20159;-77
2022/01/06 09:36:20;;;;;;;18.15;7.57;;;2.10;90.60;;;;;;5119679;27;20138;-76
2022/01/06 09:38:46;;;;;;;36.50;13.85;;;2.10;90.40;;;;;;5136537;27;20393;-76
2022/01/06 09:41:14;;;;;;;19.75;7.80;;;2.10;90.50;;;;;;5136644;27;20042;-78
2022/01/06 09:43:41;;;;;;;23.73;7.10;;;2.10;90.40;;;;;;5153752;27;20505;-76
2022/01/06 09:46:08;;;;;;;16.38;5.50;;;2.10;90.50;;;;;;5154052;27;20440;-77
2022/01/06 09:48:38;;;;;;;24.35;5.97;;;2.10;90.90;;;;;;5154060;27;20470;-76
2022/01/06 09:51:04;;;;;;;22.52;7.18;;;2.20;91.10;;;;;;5153697;27;20502;-77
2022/01/06 09:53:30;;;;;;;24.17;5.93;;;2.30;91.60;;;;;;5153619;27;20035;-76
2022/01/06 09:55:56;;;;;;;23.38;6.28;;;2.30;91.50;;;;;;5153798;27;20057;-75
2022/01/06 09:58:26;;;;;;;18.23;5.32;;;2.40;91.40;;;;;;5153487;27;20057;-77
2022/01/06 10:00:55;;;;;;;25.80;8.02;;;2.50;91.50;;;;;;5136506;27;20123;-76
2022/01/06 10:03:32;;;;;;;17.85;5.47;;;2.60;91.20;;;;;;5153631;27;20038;-77
2022/01/06 10:06:09;;;;;;;19.80;4.72;;;2.70;91.00;;;;;;5153536;27;20078;-77
2022/01/06 10:08:35;;;;;;;14.55;3.83;;;2.80;90.70;;;;;;5153406;27;20031;-77
2022/01/06 10:11:08;;;;;;;25.00;5.72;;;2.90;91.10;;;;;;5136106;27;20098;-77
2022/01/06 10:13:34;;;;;;;17.42;3.97;;;3.10;90.90;;;;;;5153775;27;20046;-77
2022/01/06 10:16:11;;;;;;;27.17;7.65;;;3.10;90.70;;;;;;5153427;27;20394;-76
2022/01/06 10:18:37;;;;;;;21.00;4.50;;;3.30;90.60;;;;;;5136025;27;20091;-77
2022/01/06 10:21:12;;;;;;;12.52;4.05;;;3.40;90.40;;;;;;5136316;27;20125;-76
2022/01/06 10:23:38;;;;;;;21.83;5.85;;;3.50;90.70;;;;;;5153437;27;20078;-77
2022/01/06 10:26:13;;;;;;;26.20;6.53;;;3.50;90.40;;;;;;5153520;27;20038;-77
2022/01/06 10:28:39;;;;;;;17.75;4.60;;;3.70;90.30;;;;;;5153327;27;20046;-78
2022/01/06 10:31:09;;;;;;;18.70;4.10;;;3.80;90.60;;;;;;5135965;27;20039;-78
2022/01/06 10:33:39;;;;;;;20.63;5.63;;;3.90;90.40;;;;;;5153326;27;20043;-78
2022/01/06 10:36:09;;;;;;;20.30;5.63;;;4.10;90.10;;;;;;5139132;27;20788;-78
2022/01/06 10:38:35;;;;;;;19.75;4.22;;;4.10;90.10;;;;;;5140113;27;20034;-76
2022/01/06 10:41:17;;;;;;;22.77;5.10;;;4.20;90.00;;;;;;5157398;27;20043;-78
2022/01/06 10:43:53;;;;;;;21.73;4.53;;;4.30;90.00;;;;;;5157304;27;20494;-78
2022/01/06 10:46:41;;;;;;;21.30;4.72;;;4.40;90.10;;;;;;5140141;27;20125;-82
2022/01/06 10:49:12;;;;;;;16.50;5.20;;;4.40;90.10;;;;;;5157003;27;20050;-77
2022/01/06 10:51:48;;;;;;;16.38;3.78;;;4.40;90.00;;;;;;5139629;27;20043;-79
2022/01/06 10:54:22;;;;;;;14.82;5.47;;;4.60;89.90;;;;;;5140050;27;20042;-77
2022/01/06 10:57:03;;;;;;;13.95;3.92;;;4.60;89.80;;;;;;5156968;27;20579;-76
2022/01/06 10:59:33;;;;;;;15.98;4.18;;;4.80;89.70;;;;;;5156974;27;20076;-79
2022/01/06 11:02:00;;;;;;;13.68;5.53;;;5.00;89.30;;;;;;5139679;27;20117;-78
2022/01/06 11:04:27;;;;;;;13.55;3.50;;;5.20;88.90;;;;;;5156806;27;20163;-80
2022/01/06 11:06:53;;;;;;;12.20;2.55;;;5.30;88.40;;;;;;5156785;27;20042;-81
2022/01/06 11:09:20;;;;;;;10.15;2.72;;;5.40;88.20;;;;;;5156584;27;20062;-78
2022/01/06 11:12:33;;;;;;;13.18;2.60;;;5.50;87.80;;;;;;5156647;27;20139;-80
2022/01/06 11:14:33;;;;;;;15.07;3.60;;;5.60;87.70;;;;;;5145694;27;20035;-78
2022/01/06 11:16:59;;;;;;;15.13;4.18;;;5.70;87.70;;;;;;5156848;27;20038;-78
2022/01/06 11:19:27;;;;;;;9.18;2.25;;;5.70;87.50;;;;;;5156988;27;20121;-78
2022/01/06 11:21:59;;;;;;;13.13;3.47;;;5.70;86.70;;;;;;5139151;27;20043;-76
2022/01/06 11:24:28;;;;;;;17.20;3.70;;;5.60;87.00;;;;;;5156513;27;20554;-78
2022/01/06 11:27:04;;;;;;;12.98;2.97;;;5.40;87.00;;;;;;5156744;27;20038;-78
2022/01/06 11:29:40;;;;;;;12.40;2.55;;;5.40;87.30;;;;;;5156562;27;20164;-78
2022/01/06 11:32:24;;;;;;;15.10;2.83;;;5.50;87.30;;;;;;5156077;27;20038;-79
2022/01/06 11:35:11;;;;;;;13.25;2.25;;;5.60;87.30;;;;;;5156311;27;20172;-79
2022/01/06 11:37:46;;;;;;;18.08;4.82;;;5.70;87.10;;;;;;5139236;27;20367;-78
2022/01/06 11:40:14;;;;;;;12.57;2.35;;;5.70;87.10;;;;;;5156213;27;20045;-79
2022/01/06 11:42:41;;;;;;;14.88;2.47;;;5.90;86.80;;;;;;5155979;27;20039;-79
2022/01/06 11:45:07;;;;;;;9.45;2.30;;;6.10;86.40;;;;;;5156342;27;20125;-80
2022/01/06 11:47:38;;;;;;;9.27;2.65;;;6.10;86.10;;;;;;5155156;27;20129;-78
2022/01/06 11:50:25;;;;;;;10.95;2.92;;;6.20;86.00;;;;;;5155960;27;20046;-77
2022/01/06 11:52:53;;;;;;;12.15;2.45;;;6.30;85.20;;;;;;5139339;27;20390;-81
2022/01/06 11:55:20;;;;;;;7.35;2.00;;;6.40;84.60;;;;;;5156213;27;20038;-78
2022/01/06 11:57:46;;;;;;;11.50;2.42;;;6.60;85.40;;;;;;5121783;27;20363;-79
2022/01/06 12:00:19;;;;;;;8.27;2.40;;;6.70;84.40;;;;;;5155848;27;20072;-80
2022/01/06 12:03:06;;;;;;;9.77;2.50;;;6.80;83.10;;;;;;5138576;27;20125;-79
2022/01/06 12:05:48;;;;;;;12.88;4.53;;;6.90;83.70;;;;;;5138724;27;20394;-78
2022/01/06 12:08:15;;;;;;;11.48;4.50;;;7.00;84.00;;;;;;5156034;27;20360;-80
2022/01/06 12:10:47;;;;;;;7.15;2.63;;;7.10;83.30;;;;;;5155517;27;20050;-79
2022/01/06 12:13:14;;;;;;;7.43;2.63;;;7.10;83.00;;;;;;5138642;27;20375;-81
2022/01/06 12:15:57;;;;;;;10.73;3.13;;;7.20;82.60;;;;;;5138485;27;20451;-81
2022/01/06 12:18:28;;;;;;;9.82;2.28;;;7.30;82.40;;;;;;5139025;27;20038;-79
2022/01/06 12:20:56;;;;;;;8.15;2.78;;;7.40;81.50;;;;;;5155622;27;20038;-79
2022/01/06 12:23:23;;;;;;;9.65;2.05;;;7.50;81.00;;;;;;5155189;27;20054;-78
2022/01/06 12:26:07;;;;;;;8.10;2.38;;;7.70;80.30;;;;;;5155346;27;20050;-81
2022/01/06 12:28:46;;;;;;;9.00;3.00;;;7.80;80.90;;;;;;5155541;27;20394;-78
2022/01/06 12:31:14;;;;;;;9.18;2.13;;;8.00;80.70;;;;;;5155117;27;20079;-78
2022/01/06 12:33:47;;;;;;;5.53;1.50;;;8.00;79.60;;;;;;5121420;27;20428;-78
2022/01/06 12:36:20;;;;;;;11.10;2.10;;;8.10;79.10;;;;;;5155427;27;20038;-80
2022/01/06 12:38:47;;;;;;;9.13;1.90;;;8.20;78.90;;;;;;5154981;27;20031;-79
2022/01/06 12:41:13;;;;;;;8.60;2.03;;;8.20;78.00;;;;;;5137940;27;20076;-79
2022/01/06 12:43:41;;;;;;;8.25;2.30;;;8.30;77.10;;;;;;5137795;27;20042;-81
2022/01/06 12:46:15;;;;;;;6.03;1.50;;;8.40;78.70;;;;;;5155173;27;20077;-80
2022/01/06 12:48:47;;;;;;;12.63;2.15;;;8.50;77.40;;;;;;5154964;27;20050;-78
2022/01/06 12:51:17;;;;;;;10.10;1.90;;;8.40;76.10;;;;;;5137563;27;20398;-79
2022/01/06 12:53:46;;;;;;;8.55;2.05;;;8.40;76.90;;;;;;5137456;27;20042;-78
2022/01/06 12:56:34;;;;;;;11.60;2.20;;;8.60;77.40;;;;;;5154976;27;20061;-77